0NC0 weather

Wayne Memorial Hospital Inc. Heliport
Goldsboro, North Carolina, United States

Public forecast

Using degrees Fahrenheit for public forecast. Weather courtesy of forecast.io.

METAR (pilot weather report)

Closest report is Seymour Johnson Air Force Base, 3.6 nm (6.7 km) S. Retrieved 2019/06/16 22:56 UTC (2 hours ago):

KGSB 162256Z AUTO 21007KT 10SM CLR 31/18 A2998 RMK AO2 SLP154 T03070184 $

TAF (pilot weather forecast)

Closest forecast is Seymour Johnson Air Force Base, 3.6 nm (6.7 km) S. Retrieved 2019/06/16 20:00 UTC (5 hours ago):

TAF KGSB 161956Z 1620/1802 25010G15KT 9999 FEW050 SCT200 QNH2992INS BECMG 1702/1703 19008KT 9999 SCT200 QNH2995INS BECMG 1714/1715 23010G15KT 9999 FEW050 SCT250 QNH2996INS TX33/1720Z TN20/1710Z LAST NO AMDS AFT 1620 NEXT 1704